River Forest, Illinois
Current Conditions -  °F | °C
As of 8:53 AM on Thursday 18 Dec 2014 (Local Time) from KMDW Reporting Station
Overcast Overcast  
Wind Chill: 19°   Ceiling: 2100
Heat Index: 25°   Visibility: 10mi
Dew Point: 16°   Wind: 5mph
Humidity: 69%   Direction: 290°WNW
Pressure: 30.31"   Gusts: NA
Location:  41.88°N, 87.82°W
Report Text: KMDW 181453Z 29004KT 10SM BKN021 OVC250 M04/M09 A3031 RMK AO2 SLP277 T10391089 53011
Loading
Personal Weather Stations






























Interactive Weather Map New forecast layout! Learn more

10-Day Weather Forecast

Advertisements
Track Severe Weather on mobile